Time,TemperatureF,DewpointF,PressureIn,WindDirection,WindDirectionDegrees,WindSpeedMPH,WindSpeedGustMPH,Humidity,HourlyPrecipIn,Conditions,Clouds,dailyrainin,SoftwareType,DateUTC
2013-05-21 00:09:00,75.2,74.6,29.70,ESE,112,9.9,-999.0,98,-99.99,,,0.00,Acu-Link.com,2013-05-21 05:09:00,
2013-05-21 00:25:00,75.2,74.6,29.69,SSE,157,5.8,-999.0,98,-99.99,,,0.00,Acu-Link.com,2013-05-21 05:25:00,
2013-05-21 00:40:00,75.0,74.4,29.69,ESE,112,7.3,-999.0,98,-99.99,,,0.00,Acu-Link.com,2013-05-21 05:40:00,
2013-05-21 00:55:00,75.0,74.4,29.69,ESE,112,6.8,-999.0,98,-99.99,,,0.00,Acu-Link.com,2013-05-21 05:55:00,
2013-05-21 01:10:00,74.8,74.2,29.69,ESE,112,3.7,-999.0,98,-99.99,,,0.00,Acu-Link.com,2013-05-21 06:10:00,
2013-05-21 01:25:00,74.7,74.1,29.68,South,180,7.3,-999.0,98,-99.99,,,0.00,Acu-Link.com,2013-05-21 06:25:00,
2013-05-21 01:40:00,74.3,73.7,29.66,ESE,112,6.8,-999.0,98,-99.99,,,0.00,Acu-Link.com,2013-05-21 06:40:00,
2013-05-21 01:55:00,74.1,73.5,29.66,ESE,112,4.2,-999.0,98,-99.99,,,0.00,Acu-Link.com,2013-05-21 06:55:00,
2013-05-21 02:10:00,73.8,73.2,29.65,ESE,112,4.2,-999.0,98,-99.99,,,0.00,Acu-Link.com,2013-05-21 07:10:00,
2013-05-21 02:25:00,73.6,73.0,29.64,SE,135,3.7,-999.0,98,-99.99,,,0.00,Acu-Link.com,2013-05-21 07:25:00,
2013-05-21 02:41:00,73.6,73.0,29.64,NE,45,2.7,-999.0,98,-99.99,,,0.00,Acu-Link.com,2013-05-21 07:41:00,
2013-05-21 02:56:00,73.2,72.6,29.62,SSE,157,4.2,-999.0,98,-99.99,,,0.00,Acu-Link.com,2013-05-21 07:56:00,
2013-05-21 03:11:00,73.0,72.4,29.62,ESE,112,4.7,-999.0,98,-99.99,,,0.00,Acu-Link.com,2013-05-21 08:11:00,
2013-05-21 03:26:00,73.2,72.6,29.62,SE,135,3.2,-999.0,98,-99.99,,,0.00,Acu-Link.com,2013-05-21 08:26:00,
2013-05-21 03:41:00,73.4,72.8,29.62,ESE,112,4.2,-999.0,98,-99.99,,,0.00,Acu-Link.com,2013-05-21 08:41:00,
2013-05-21 03:57:00,73.4,72.8,29.62,ESE,112,3.2,-999.0,98,-99.99,,,0.00,Acu-Link.com,2013-05-21 08:57:00,
2013-05-21 04:12:00,73.8,73.2,29.63,ESE,112,1.1,-999.0,98,-99.99,,,0.00,Acu-Link.com,2013-05-21 09:12:00,
2013-05-21 04:27:00,73.8,73.2,29.62,SSE,157,2.7,-999.0,98,-99.99,,,0.00,Acu-Link.com,2013-05-21 09:27:00,
2013-05-21 04:42:00,73.9,73.3,29.62,South,180,2.7,-999.0,98,-99.99,,,0.00,Acu-Link.com,2013-05-21 09:42:00,
2013-05-21 04:57:00,73.9,73.3,29.62,SSE,157,1.1,-999.0,98,-99.99,,,0.00,Acu-Link.com,2013-05-21 09:57:00,
2013-05-21 05:12:00,74.1,73.5,29.63,NNW,337,3.7,-999.0,98,-99.99,,,0.00,Acu-Link.com,2013-05-21 10:12:00,
2013-05-21 05:27:00,74.3,73.7,29.63,SSE,157,4.7,-999.0,98,-99.99,,,0.00,Acu-Link.com,2013-05-21 10:27:00,
2013-05-21 05:42:00,73.9,73.3,29.62,East,90,4.7,-999.0,98,-99.99,,,0.00,Acu-Link.com,2013-05-21 10:42:00,
2013-05-21 05:58:00,73.9,73.3,29.63,South,180,3.7,-999.0,98,-99.99,,,0.00,Acu-Link.com,2013-05-21 10:58:00,
2013-05-21 06:13:00,73.8,73.2,29.63,SE,135,3.7,-999.0,98,-99.99,,,0.00,Acu-Link.com,2013-05-21 11:13:00,
2013-05-21 06:28:00,73.9,73.3,29.63,South,180,6.3,-999.0,98,-99.99,,,0.00,Acu-Link.com,2013-05-21 11:28:00,
2013-05-21 06:43:00,74.1,73.5,29.63,North,0,4.7,-999.0,98,-99.99,,,0.00,Acu-Link.com,2013-05-21 11:43:00,
2013-05-21 06:58:00,74.3,73.7,29.63,ESE,112,4.2,-999.0,98,-99.99,,,0.00,Acu-Link.com,2013-05-21 11:58:00,
2013-05-21 07:13:00,74.5,73.9,29.64,SE,135,5.8,-999.0,98,-99.99,,,0.00,Acu-Link.com,2013-05-21 12:13:00,
2013-05-21 07:29:00,74.5,73.9,29.64,SSE,157,3.2,-999.0,98,-99.99,,,0.00,Acu-Link.com,2013-05-21 12:29:00,
2013-05-21 07:44:00,74.8,74.2,29.64,SSE,157,3.7,-999.0,98,-99.99,,,0.00,Acu-Link.com,2013-05-21 12:44:00,
2013-05-21 07:59:00,75.2,74.6,29.65,SE,135,4.2,-999.0,98,-99.99,,,0.00,Acu-Link.com,2013-05-21 12:59:00,
2013-05-21 08:14:00,75.9,75.3,29.65,ESE,112,6.8,-999.0,98,-99.99,,,0.00,Acu-Link.com,2013-05-21 13:14:00,
2013-05-21 08:29:00,76.6,76.0,29.65,SE,135,4.7,-999.0,98,-99.99,,,0.00,Acu-Link.com,2013-05-21 13:29:00,
2013-05-21 08:44:00,77.4,76.8,29.66,SSE,157,3.2,-999.0,98,-99.99,,,0.00,Acu-Link.com,2013-05-21 13:44:00,
2013-05-21 08:59:00,77.7,77.1,29.67,ESE,112,4.2,-999.0,98,-99.99,,,0.00,Acu-Link.com,2013-05-21 13:59:00,
2013-05-21 09:14:00,77.5,76.9,29.67,East,90,2.7,-999.0,98,-99.99,,,0.00,Acu-Link.com,2013-05-21 14:14:00,
2013-05-21 09:29:00,77.9,77.3,29.67,East,90,3.2,-999.0,98,-99.99,,,0.00,Acu-Link.com,2013-05-21 14:29:00,
2013-05-21 09:45:00,78.4,77.8,29.67,SSE,157,3.7,-999.0,98,-99.99,,,0.00,Acu-Link.com,2013-05-21 14:45:00,
2013-05-21 10:00:00,79.3,78.7,29.67,SSE,157,4.2,-999.0,98,-99.99,,,0.00,Acu-Link.com,2013-05-21 15:00:00,
2013-05-21 10:15:00,80.4,79.8,29.67,SSE,157,6.8,-999.0,98,-99.99,,,0.00,Acu-Link.com,2013-05-21 15:15:00,
2013-05-21 10:30:00,80.2,79.6,29.67,West,270,4.2,-999.0,98,-99.99,,,0.00,Acu-Link.com,2013-05-21 15:30:00,
2013-05-21 10:45:00,81.1,80.5,29.67,ESE,112,5.3,-999.0,98,-99.99,,,0.00,Acu-Link.com,2013-05-21 15:45:00,
2013-05-21 11:00:00,82.6,82.0,29.67,North,0,4.2,-999.0,98,-99.99,,,0.00,Acu-Link.com,2013-05-21 16:00:00,
2013-05-21 11:15:00,84.2,83.6,29.67,ESE,112,4.2,-999.0,98,-99.99,,,0.00,Acu-Link.com,2013-05-21 16:15:00,
2013-05-21 11:30:00,83.3,82.7,29.67,SSW,202,4.7,-999.0,98,-99.99,,,0.00,Acu-Link.com,2013-05-21 16:30:00,
2013-05-21 11:45:00,83.3,82.7,29.67,SSE,157,4.2,-999.0,98,-99.99,,,0.00,Acu-Link.com,2013-05-21 16:45:00,
2013-05-21 12:01:00,84.4,83.8,29.67,South,180,2.7,-999.0,98,-99.99,,,0.00,Acu-Link.com,2013-05-21 17:01:00,
2013-05-21 12:16:00,83.7,83.1,29.67,NNW,337,6.8,-999.0,98,-99.99,,,0.00,Acu-Link.com,2013-05-21 17:16:00,
2013-05-21 12:31:00,85.3,84.7,29.66,SE,135,2.2,-999.0,98,-99.99,,,0.00,Acu-Link.com,2013-05-21 17:31:00,
2013-05-21 12:46:00,88.0,87.4,29.65,SE,135,2.2,-999.0,98,-99.99,,,0.00,Acu-Link.com,2013-05-21 17:46:00,
2013-05-21 13:01:00,90.1,72.3,29.65,SSE,157,3.2,-999.0,56,-99.99,,,0.00,Acu-Link.com,2013-05-21 18:01:00,
2013-05-21 13:16:00,91.0,65.4,29.64,SSE,157,7.3,-999.0,43,-99.99,,,0.00,Acu-Link.com,2013-05-21 18:16:00,
2013-05-21 13:31:00,90.5,64.9,29.63,SE,135,5.8,-999.0,43,-99.99,,,0.00,Acu-Link.com,2013-05-21 18:31:00,
2013-05-21 13:46:00,90.5,64.9,29.63,NE,45,6.8,-999.0,43,-99.99,,,0.00,Acu-Link.com,2013-05-21 18:46:00,
2013-05-21 14:01:00,91.0,67.3,29.63,SSE,157,4.2,-999.0,46,-99.99,,,0.00,Acu-Link.com,2013-05-21 19:01:00,
2013-05-21 14:17:00,89.6,62.7,29.62,South,180,10.4,-999.0,41,-99.99,,,0.00,Acu-Link.com,2013-05-21 19:17:00,
2013-05-21 14:32:00,87.1,67.3,29.63,West,270,4.7,-999.0,52,-99.99,,,0.00,Acu-Link.com,2013-05-21 19:32:00,
2013-05-21 14:47:00,86.0,78.3,29.62,South,180,3.2,-999.0,78,-99.99,,,0.00,Acu-Link.com,2013-05-21 19:47:00,
2013-05-21 15:02:00,86.7,86.1,29.61,SSW,202,4.7,-999.0,98,-99.99,,,0.00,Acu-Link.com,2013-05-21 20:02:00,
2013-05-21 15:17:00,87.6,73.9,29.61,South,180,3.2,-999.0,64,-99.99,,,0.00,Acu-Link.com,2013-05-21 20:17:00,
2013-05-21 15:32:00,86.2,81.1,29.59,SE,135,3.2,-999.0,85,-99.99,,,0.00,Acu-Link.com,2013-05-21 20:32:00,
2013-05-21 15:47:00,85.1,84.5,29.60,NW,315,0.0,-999.0,98,-99.99,,,0.00,Acu-Link.com,2013-05-21 20:47:00,
2013-05-21 16:02:00,85.1,84.5,29.59,West,270,3.2,-999.0,98,-99.99,,,0.00,Acu-Link.com,2013-05-21 21:02:00,
2013-05-21 16:17:00,84.7,84.1,29.58,SSW,202,1.7,-999.0,98,-99.99,,,0.00,Acu-Link.com,2013-05-21 21:17:00,
2013-05-21 16:33:00,82.6,82.0,29.58,West,270,1.7,-999.0,98,-99.99,,,0.00,Acu-Link.com,2013-05-21 21:33:00,
2013-05-21 16:48:00,80.2,79.6,29.59,WNW,292,3.2,-999.0,98,-99.99,,,0.00,Acu-Link.com,2013-05-21 21:48:00,
2013-05-21 17:03:00,79.2,78.6,29.59,WSW,247,1.7,-999.0,98,-99.99,,,0.00,Acu-Link.com,2013-05-21 22:03:00,
2013-05-21 17:18:00,78.6,78.0,29.59,SSW,202,1.1,-999.0,98,-99.99,,,0.00,Acu-Link.com,2013-05-21 22:18:00,
2013-05-21 17:33:00,80.8,80.2,29.59,NW,315,0.0,-999.0,98,-99.99,,,0.01,Acu-Link.com,2013-05-21 22:33:00,
2013-05-21 17:48:00,85.1,84.5,29.58,SSE,157,2.2,-999.0,98,-99.99,,,0.02,Acu-Link.com,2013-05-21 22:48:00,
2013-05-21 18:03:00,86.0,85.4,29.58,NE,45,2.2,-999.0,98,-99.99,,,0.02,Acu-Link.com,2013-05-21 23:03:00,
2013-05-21 18:18:00,86.5,85.9,29.59,West,270,0.0,-999.0,98,-99.99,,,0.02,Acu-Link.com,2013-05-21 23:18:00,
2013-05-21 18:33:00,75.6,75.0,29.61,NE,45,3.7,-999.0,98,-99.99,,,0.02,Acu-Link.com,2013-05-21 23:33:00,
2013-05-21 18:49:00,72.5,71.9,29.62,NNW,337,2.2,-999.0,98,-99.99,,,0.02,Acu-Link.com,2013-05-21 23:49:00,
2013-05-21 19:04:00,72.1,71.5,29.63,NNE,22,4.2,-999.0,98,-99.99,,,0.02,Acu-Link.com,2013-05-22 00:04:00,
2013-05-21 19:19:00,72.7,72.1,29.63,ENE,67,0.0,-999.0,98,-99.99,,,0.02,Acu-Link.com,2013-05-22 00:19:00,
2013-05-21 19:34:00,72.0,71.4,29.65,NW,315,3.2,-999.0,98,-99.99,,,0.02,Acu-Link.com,2013-05-22 00:34:00,
2013-05-21 19:49:00,71.4,70.8,29.65,WNW,292,4.2,-999.0,98,-99.99,,,0.02,Acu-Link.com,2013-05-22 00:49:00,
2013-05-21 20:04:00,70.9,70.3,29.66,NW,315,1.1,-999.0,98,-99.99,,,0.02,Acu-Link.com,2013-05-22 01:04:00,
2013-05-21 20:19:00,70.3,69.7,29.67,NNW,337,1.7,-999.0,98,-99.99,,,0.02,Acu-Link.com,2013-05-22 01:19:00,
2013-05-21 20:34:00,69.6,69.0,29.68,NNW,337,4.2,-999.0,98,-99.99,,,0.02,Acu-Link.com,2013-05-22 01:34:00,
2013-05-21 20:49:00,69.3,68.7,29.69,NNW,337,2.2,-999.0,98,-99.99,,,0.02,Acu-Link.com,2013-05-22 01:49:00,
2013-05-21 21:05:00,69.1,68.5,29.70,North,0,2.7,-999.0,98,-99.99,,,0.02,Acu-Link.com,2013-05-22 02:05:00,
2013-05-21 21:20:00,69.1,68.5,29.70,West,270,2.2,-999.0,98,-99.99,,,0.02,Acu-Link.com,2013-05-22 02:20:00,
2013-05-21 21:35:00,69.1,68.5,29.71,NE,45,0.0,-999.0,98,-99.99,,,0.02,Acu-Link.com,2013-05-22 02:35:00,
2013-05-21 21:50:00,69.1,68.5,29.72,North,0,2.7,-999.0,98,-99.99,,,0.02,Acu-Link.com,2013-05-22 02:50:00,
2013-05-21 22:05:00,69.1,68.5,29.72,WNW,292,3.2,-999.0,98,-99.99,,,0.02,Acu-Link.com,2013-05-22 03:05:00,
2013-05-21 22:20:00,69.1,68.5,29.73,West,270,0.0,-999.0,98,-99.99,,,0.02,Acu-Link.com,2013-05-22 03:20:00,
2013-05-21 22:35:00,69.3,68.7,29.74,North,0,1.1,-999.0,98,-99.99,,,0.02,Acu-Link.com,2013-05-22 03:35:00,
2013-05-21 22:50:00,69.4,68.8,29.75,ESE,112,0.0,-999.0,98,-99.99,,,0.02,Acu-Link.com,2013-05-22 03:50:00,
2013-05-21 23:05:00,69.1,68.5,29.76,NNE,22,1.7,-999.0,98,-99.99,,,0.02,Acu-Link.com,2013-05-22 04:05:00,
2013-05-21 23:20:00,68.4,67.8,29.76,North,0,1.7,-999.0,98,-99.99,,,0.02,Acu-Link.com,2013-05-22 04:20:00,
2013-05-21 23:36:00,68.0,67.4,29.76,North,0,0.0,-999.0,98,-99.99,,,0.02,Acu-Link.com,2013-05-22 04:36:00,
2013-05-21 23:51:00,67.6,67.0,29.77,ESE,112,0.0,-999.0,98,-99.99,,,0.02,Acu-Link.com,2013-05-22 04:51:00,